Time;durP1;ratioP1;P1;durP2;ratioP2;P2;SDS_P1;SDS_P2;PMS_P1;PMS_P2;Temp;Humidity;BMP_temperature;BMP_pressure;BME280_temperature;BME280_humidity;BME280_pressure;Samples;Min_cycle;Max_cycle;Signal;HPM_P1;HPM_P2
2023/06/02 00:00:39;;;;;;;12.40;9.30;;;15.70;82.60;;;;;;5135191;27;20490;-74
2023/06/02 00:03:06;;;;;;;11.27;8.30;;;15.70;82.20;;;;;;5134361;27;20578;-74
2023/06/02 00:05:34;;;;;;;9.57;6.80;;;15.70;82.00;;;;;;5134276;27;20497;-73
2023/06/02 00:08:03;;;;;;;8.73;6.50;;;15.70;81.90;;;;;;5133313;27;20469;-73
2023/06/02 00:10:32;;;;;;;9.13;6.60;;;15.60;81.80;;;;;;5123427;28;20970;-74
2023/06/02 00:13:01;;;;;;;10.57;6.23;;;15.60;82.30;;;;;;5135547;28;20487;-74
2023/06/02 00:15:31;;;;;;;6.90;4.93;;;15.50;82.40;;;;;;5135176;28;20842;-74
2023/06/02 00:18:02;;;;;;;8.70;6.40;;;15.30;83.00;;;;;;5133630;28;20934;-74
2023/06/02 00:20:31;;;;;;;5.90;4.93;;;15.30;83.40;;;;;;5135577;28;20435;-74
2023/06/02 00:23:03;;;;;;;7.30;5.73;;;15.30;84.10;;;;;;5133749;28;20976;-73
2023/06/02 00:25:30;;;;;;;8.47;6.10;;;15.20;84.50;;;;;;5134850;28;20438;-74
2023/06/02 00:28:01;;;;;;;6.10;5.50;;;15.30;85.00;;;;;;5134930;28;20430;-73
2023/06/02 00:30:30;;;;;;;8.97;6.03;;;15.30;85.20;;;;;;5135848;28;20422;-74
2023/06/02 00:33:03;;;;;;;5.80;4.60;;;15.20;86.40;;;;;;5135253;28;20499;-74
2023/06/02 00:35:31;;;;;;;8.03;6.03;;;15.30;85.80;;;;;;5134855;28;20519;-74
2023/06/02 00:38:04;;;;;;;6.50;5.40;;;15.20;85.70;;;;;;5133574;28;20469;-74
2023/06/02 00:40:34;;;;;;;7.20;6.33;;;15.30;85.90;;;;;;5133556;28;20448;-73
2023/06/02 00:43:01;;;;;;;8.90;5.87;;;15.30;85.80;;;;;;5134570;28;20484;-74
2023/06/02 00:45:32;;;;;;;7.70;6.60;;;15.30;85.30;;;;;;5135406;28;20521;-74
2023/06/02 00:48:01;;;;;;;7.33;5.77;;;15.20;84.90;;;;;;5134938;28;20899;-74
2023/06/02 00:50:33;;;;;;;9.27;6.53;;;15.10;85.60;;;;;;5134093;28;20943;-73
2023/06/02 00:53:02;;;;;;;8.10;5.80;;;15.00;86.00;;;;;;5134789;28;20437;-74
2023/06/02 00:55:31;;;;;;;8.73;5.53;;;15.00;86.00;;;;;;5134257;28;20498;-74
2023/06/02 00:58:03;;;;;;;6.80;5.73;;;15.00;85.70;;;;;;5135587;28;20434;-73
2023/06/02 01:00:36;;;;;;;11.73;6.33;;;15.00;85.40;;;;;;5136069;28;20516;-74
2023/06/02 01:03:04;;;;;;;7.00;4.90;;;14.90;85.60;;;;;;5135587;28;20594;-74
2023/06/02 01:05:31;;;;;;;6.47;5.60;;;14.90;85.70;;;;;;5135475;28;20439;-74
2023/06/02 01:08:03;;;;;;;6.30;5.63;;;14.80;86.10;;;;;;5135515;28;20554;-74
2023/06/02 01:10:31;;;;;;;7.37;5.90;;;14.80;86.70;;;;;;5134723;28;20482;-73
2023/06/02 01:13:00;;;;;;;9.47;6.17;;;14.70;86.90;;;;;;5134761;28;20524;-74
2023/06/02 01:15:27;;;;;;;7.00;6.30;;;14.70;86.90;;;;;;5135850;27;20429;-74
2023/06/02 01:17:55;;;;;;;9.00;6.00;;;14.60;86.90;;;;;;5138267;27;20926;-74
2023/06/02 01:20:23;;;;;;;8.50;7.10;;;14.60;87.50;;;;;;5138612;27;20476;-74
2023/06/02 01:23:08;;;;;;;9.40;6.27;;;14.60;87.80;;;;;;5138807;27;20477;-74
2023/06/02 01:25:40;;;;;;;7.10;6.30;;;14.60;88.00;;;;;;5137628;27;21031;-74
2023/06/02 01:28:07;;;;;;;8.47;7.17;;;14.60;88.00;;;;;;5139665;27;20441;-73
2023/06/02 01:30:35;;;;;;;8.20;6.40;;;14.50;87.90;;;;;;5138760;27;20441;-75
2023/06/02 01:33:10;;;;;;;9.80;6.40;;;14.50;87.50;;;;;;5139877;27;20916;-74
2023/06/02 01:35:42;;;;;;;7.00;6.07;;;14.50;88.20;;;;;;5139545;27;20433;-74
2023/06/02 01:38:14;;;;;;;8.30;6.60;;;14.40;88.30;;;;;;5139363;27;20536;-73
2023/06/02 01:40:43;;;;;;;7.40;6.27;;;14.30;88.70;;;;;;5136967;27;20457;-74
2023/06/02 01:43:11;;;;;;;8.00;6.47;;;14.30;89.20;;;;;;5138272;27;20557;-74
2023/06/02 01:45:41;;;;;;;9.00;6.27;;;14.20;89.50;;;;;;5138291;27;20430;-74
2023/06/02 01:48:09;;;;;;;12.97;7.33;;;14.20;90.00;;;;;;5138101;27;20441;-74
2023/06/02 01:50:38;;;;;;;7.87;6.10;;;14.10;90.00;;;;;;5138540;27;20448;-74
2023/06/02 01:53:06;;;;;;;8.27;6.53;;;14.00;90.20;;;;;;5138255;27;20474;-74
2023/06/02 01:55:34;;;;;;;8.87;6.60;;;14.00;90.60;;;;;;5138642;27;20896;-74
2023/06/02 01:58:03;;;;;;;6.77;5.40;;;13.90;90.80;;;;;;5138385;27;20512;-74
2023/06/02 02:00:30;;;;;;;9.93;6.27;;;13.90;90.90;;;;;;5136272;27;20517;-74
2023/06/02 02:02:58;;;;;;;11.50;6.50;;;13.90;90.90;;;;;;5137845;27;20488;-74
2023/06/02 02:05:25;;;;;;;10.53;7.43;;;14.00;91.10;;;;;;5137548;27;21042;-74
2023/06/02 02:07:52;;;;;;;8.13;6.50;;;14.00;91.10;;;;;;5138196;27;20838;-74
2023/06/02 02:10:21;;;;;;;11.80;6.50;;;14.00;90.80;;;;;;5137417;27;20520;-74
2023/06/02 02:12:53;;;;;;;7.70;5.53;;;14.00;90.60;;;;;;5137494;27;20479;-74
2023/06/02 02:15:23;;;;;;;8.30;6.60;;;14.00;90.50;;;;;;5137531;27;20928;-74
2023/06/02 02:17:56;;;;;;;8.30;6.90;;;14.00;90.70;;;;;;5138364;27;20798;-74
2023/06/02 02:20:28;;;;;;;10.33;7.33;;;13.90;90.80;;;;;;5137714;27;20433;-74
2023/06/02 02:22:55;;;;;;;7.97;6.90;;;13.90;90.70;;;;;;5138180;27;20495;-74
2023/06/02 02:25:23;;;;;;;9.37;6.50;;;14.00;90.80;;;;;;5136830;27;20437;-74
2023/06/02 02:27:51;;;;;;;9.33;7.70;;;14.00;90.90;;;;;;5137512;27;20450;-74
2023/06/02 02:30:18;;;;;;;7.80;7.00;;;14.00;90.80;;;;;;5136255;27;20992;-74
2023/06/02 02:32:46;;;;;;;7.80;6.20;;;13.90;90.90;;;;;;5136993;27;20437;-74
2023/06/02 02:35:18;;;;;;;7.20;6.23;;;14.00;90.90;;;;;;5138139;27;20946;-74
2023/06/02 02:37:46;;;;;;;7.47;6.67;;;13.90;90.60;;;;;;5138747;27;20440;-74
2023/06/02 02:40:18;;;;;;;10.00;6.63;;;13.90;90.80;;;;;;5136972;27;20444;-74
2023/06/02 02:42:46;;;;;;;9.60;6.53;;;13.90;91.00;;;;;;5136592;27;20505;-74
2023/06/02 02:45:13;;;;;;;9.37;6.00;;;13.90;91.20;;;;;;5135031;27;20433;-74
2023/06/02 02:47:40;;;;;;;9.77;6.43;;;13.90;91.20;;;;;;5136941;27;20488;-74
2023/06/02 02:50:09;;;;;;;7.73;6.93;;;13.90;91.10;;;;;;5136651;27;20480;-74
2023/06/02 02:52:36;;;;;;;10.93;6.57;;;13.90;90.90;;;;;;5135684;27;20470;-74
2023/06/02 02:55:05;;;;;;;7.37;5.87;;;13.80;90.10;;;;;;5135914;27;20494;-73
2023/06/02 02:57:32;;;;;;;7.10;6.43;;;13.70;89.70;;;;;;5135608;27;20438;-74
2023/06/02 02:59:59;;;;;;;11.03;8.10;;;13.70;90.30;;;;;;5135949;27;20462;-73
2023/06/02 03:02:28;;;;;;;9.03;5.90;;;13.70;90.40;;;;;;5136234;27;20480;-74
2023/06/02 03:04:56;;;;;;;9.93;7.60;;;13.70;90.80;;;;;;5135812;27;20478;-73
2023/06/02 03:07:24;;;;;;;8.77;7.77;;;13.60;90.90;;;;;;5136193;27;20483;-73
2023/06/02 03:09:51;;;;;;;9.27;7.27;;;13.60;90.90;;;;;;5134881;27;20437;-74
2023/06/02 03:12:19;;;;;;;9.10;6.77;;;13.60;91.00;;;;;;5135447;27;20429;-74
2023/06/02 03:14:48;;;;;;;8.90;7.03;;;13.60;91.20;;;;;;5134686;27;20436;-73
2023/06/02 03:17:17;;;;;;;10.60;7.70;;;13.60;91.20;;;;;;5135898;27;20478;-74
2023/06/02 03:19:44;;;;;;;12.87;6.40;;;13.50;91.20;;;;;;5135291;27;20442;-74
2023/06/02 03:22:11;;;;;;;8.90;6.33;;;13.40;91.40;;;;;;5135454;27;20437;-74
2023/06/02 03:24:39;;;;;;;11.57;6.80;;;13.30;91.50;;;;;;5135321;27;20482;-74
2023/06/02 03:27:13;;;;;;;10.17;7.10;;;13.30;91.70;;;;;;5135422;27;20441;-74
2023/06/02 03:29:41;;;;;;;9.33;8.23;;;13.20;91.90;;;;;;5134574;27;20516;-73
2023/06/02 03:32:10;;;;;;;12.30;7.33;;;13.10;92.10;;;;;;5135838;27;20457;-73
2023/06/02 03:34:40;;;;;;;12.03;8.30;;;13.00;92.50;;;;;;5135126;27;20470;-74
2023/06/02 03:37:07;;;;;;;9.60;7.53;;;13.00;92.80;;;;;;5135496;27;20776;-73
2023/06/02 03:39:35;;;;;;;9.90;8.03;;;13.10;92.90;;;;;;5134654;27;20491;-73
2023/06/02 03:42:05;;;;;;;11.57;7.30;;;13.10;93.10;;;;;;5135169;27;20461;-74
2023/06/02 03:44:32;;;;;;;13.90;7.87;;;13.20;93.10;;;;;;5134586;27;20834;-73
2023/06/02 03:46:59;;;;;;;17.40;8.77;;;13.20;92.90;;;;;;5136058;27;20468;-73
2023/06/02 03:49:29;;;;;;;9.80;7.77;;;13.20;92.70;;;;;;5136475;27;20498;-74
2023/06/02 03:52:02;;;;;;;8.67;7.00;;;13.30;92.40;;;;;;5135878;27;20482;-74
2023/06/02 03:54:29;;;;;;;9.47;7.23;;;13.20;92.00;;;;;;5136185;27;20466;-73
2023/06/02 03:56:57;;;;;;;8.77;6.33;;;13.20;91.90;;;;;;5135484;27;20494;-74
2023/06/02 03:59:25;;;;;;;7.00;5.97;;;13.20;91.90;;;;;;5134991;27;20436;-73
2023/06/02 04:01:56;;;;;;;8.27;7.07;;;13.10;92.00;;;;;;5136389;27;20461;-74
2023/06/02 04:04:23;;;;;;;12.10;8.40;;;13.20;91.80;;;;;;5137507;27;20512;-74
2023/06/02 04:06:53;;;;;;;9.80;7.03;;;13.20;92.10;;;;;;5137349;27;20438;-73
2023/06/02 04:09:20;;;;;;;8.17;6.43;;;13.10;92.40;;;;;;5137003;27;20505;-74
2023/06/02 04:11:47;;;;;;;7.17;6.43;;;13.20;92.70;;;;;;5136931;28;20933;-74
2023/06/02 04:14:22;;;;;;;9.77;7.47;;;13.20;92.90;;;;;;5135755;28;20460;-74
2023/06/02 04:16:51;;;;;;;10.60;7.60;;;13.20;92.70;;;;;;5135306;28;20478;-74
2023/06/02 04:19:24;;;;;;;9.90;7.90;;;13.20;93.10;;;;;;5135989;28;20477;-73
2023/06/02 04:21:52;;;;;;;9.87;7.63;;;13.30;93.20;;;;;;5136127;28;20441;-73
2023/06/02 04:24:25;;;;;;;9.93;7.53;;;13.30;93.30;;;;;;5136186;28;20971;-74
2023/06/02 04:26:52;;;;;;;8.60;6.50;;;13.40;93.40;;;;;;5136114;28;20445;-73
2023/06/02 04:29:24;;;;;;;9.70;6.90;;;13.50;93.60;;;;;;5135074;28;20916;-73
2023/06/02 04:31:52;;;;;;;8.83;6.97;;;13.60;93.70;;;;;;5136146;28;20457;-74
2023/06/02 04:34:22;;;;;;;8.53;7.50;;;13.60;93.60;;;;;;5136259;28;20506;-74
2023/06/02 04:36:50;;;;;;;10.63;7.40;;;13.70;93.80;;;;;;5136001;28;20527;-74
2023/06/02 04:39:17;;;;;;;7.83;6.90;;;13.80;93.40;;;;;;5135935;28;20486;-74
2023/06/02 04:41:46;;;;;;;10.60;7.30;;;13.90;93.70;;;;;;5135309;28;20490;-75
2023/06/02 04:44:17;;;;;;;10.00;7.37;;;13.90;93.60;;;;;;5134979;28;20487;-75
2023/06/02 04:46:46;;;;;;;8.27;7.40;;;14.00;93.40;;;;;;5135630;28;20573;-74
2023/06/02 04:49:15;;;;;;;8.67;6.40;;;14.10;93.20;;;;;;5136192;28;20429;-74
2023/06/02 04:51:44;;;;;;;10.57;7.40;;;14.10;93.20;;;;;;5138668;27;20445;-74
2023/06/02 04:54:11;;;;;;;11.97;7.50;;;14.20;93.40;;;;;;5136583;27;20503;-75
2023/06/02 04:56:40;;;;;;;11.50;7.83;;;14.30;93.60;;;;;;5137984;27;20526;-74
2023/06/02 04:59:07;;;;;;;8.77;7.63;;;14.40;93.60;;;;;;5133559;27;20425;-74
2023/06/02 05:01:34;;;;;;;8.80;6.00;;;14.50;93.50;;;;;;5137562;27;20448;-74
2023/06/02 05:04:02;;;;;;;8.90;7.33;;;14.50;93.50;;;;;;5136324;27;20481;-74
2023/06/02 05:06:30;;;;;;;7.40;5.97;;;14.60;93.50;;;;;;5136485;27;20916;-74
2023/06/02 05:08:57;;;;;;;8.80;7.43;;;14.70;93.20;;;;;;5135844;27;20552;-75
2023/06/02 05:11:24;;;;;;;13.77;10.27;;;14.80;93.20;;;;;;5136214;27;20788;-74
2023/06/02 05:13:52;;;;;;;10.43;7.97;;;14.90;93.10;;;;;;5137038;27;20433;-75
2023/06/02 05:16:20;;;;;;;8.63;7.47;;;15.00;93.10;;;;;;5137013;27;20433;-74
2023/06/02 05:18:47;;;;;;;11.67;7.67;;;15.20;93.20;;;;;;5138006;27;20444;-73
2023/06/02 05:21:15;;;;;;;9.77;7.70;;;15.30;92.90;;;;;;5137207;27;20446;-75
2023/06/02 05:23:45;;;;;;;9.93;7.60;;;15.40;92.80;;;;;;5135703;27;20481;-74
2023/06/02 05:26:12;;;;;;;9.37;6.43;;;15.40;92.70;;;;;;5133878;27;20433;-74
2023/06/02 05:28:40;;;;;;;9.23;7.00;;;15.50;92.80;;;;;;5137783;27;20483;-74
2023/06/02 05:31:14;;;;;;;8.00;6.80;;;15.70;92.50;;;;;;5137848;27;20433;-74
2023/06/02 05:33:55;;;;;;;9.50;7.07;;;15.80;92.00;;;;;;5134569;27;20776;-75
2023/06/02 05:36:22;;;;;;;11.73;6.67;;;15.90;91.70;;;;;;5137376;27;21001;-73
2023/06/02 05:38:54;;;;;;;7.80;6.73;;;16.00;91.30;;;;;;5135995;27;21163;-75
2023/06/02 05:41:24;;;;;;;10.10;6.83;;;16.10;91.10;;;;;;5137356;27;20442;-75
2023/06/02 05:43:52;;;;;;;9.70;7.40;;;16.20;91.10;;;;;;5137463;27;20477;-74
2023/06/02 05:46:21;;;;;;;11.47;7.27;;;16.30;91.10;;;;;;5136666;27;20429;-74
2023/06/02 05:48:48;;;;;;;9.40;8.13;;;16.40;91.00;;;;;;5136572;27;20966;-75
2023/06/02 05:51:15;;;;;;;8.40;6.97;;;16.50;90.90;;;;;;5134186;27;20797;-74
2023/06/02 05:53:49;;;;;;;7.30;6.00;;;16.70;90.90;;;;;;5136738;27;20439;-74
2023/06/02 05:56:18;;;;;;;14.00;6.60;;;16.80;90.50;;;;;;5128924;27;20880;-74
2023/06/02 05:58:48;;;;;;;9.00;6.53;;;16.90;90.20;;;;;;5130054;27;20460;-74
2023/06/02 06:01:15;;;;;;;11.53;5.77;;;17.00;90.00;;;;;;5131780;27;20932;-74
2023/06/02 06:03:46;;;;;;;7.70;6.67;;;17.10;89.40;;;;;;5132730;27;20514;-74
2023/06/02 06:06:17;;;;;;;9.03;6.57;;;17.20;89.20;;;;;;5136179;27;20797;-74
2023/06/02 06:08:44;;;;;;;10.73;7.67;;;17.30;88.80;;;;;;5135908;27;20512;-74
2023/06/02 06:11:12;;;;;;;8.37;6.53;;;17.40;88.40;;;;;;5135536;27;20438;-75
2023/06/02 06:13:40;;;;;;;9.13;8.17;;;17.50;87.50;;;;;;5133907;27;20453;-75
2023/06/02 06:16:09;;;;;;;9.63;6.70;;;17.60;87.50;;;;;;5135740;27;20508;-75
2023/06/02 06:18:36;;;;;;;11.27;6.80;;;17.70;87.60;;;;;;5136683;27;20437;-74
2023/06/02 06:21:09;;;;;;;10.23;6.57;;;17.90;87.40;;;;;;5137023;27;20497;-74
2023/06/02 06:23:38;;;;;;;8.27;5.73;;;18.00;87.20;;;;;;5134938;27;20549;-75
2023/06/02 06:26:10;;;;;;;6.80;5.23;;;18.10;86.50;;;;;;5133244;27;20844;-74
2023/06/02 06:28:45;;;;;;;11.13;7.40;;;18.20;85.10;;;;;;5128218;27;20489;-75
2023/06/02 06:31:16;;;;;;;6.10;5.50;;;18.30;85.10;;;;;;5134034;27;20478;-74
2023/06/02 06:33:43;;;;;;;7.10;5.17;;;18.40;84.50;;;;;;5131192;27;20445;-75
2023/06/02 06:36:12;;;;;;;8.30;5.43;;;18.50;84.50;;;;;;5134733;27;20492;-75
2023/06/02 06:38:39;;;;;;;7.63;4.97;;;18.70;83.00;;;;;;5134689;27;20514;-74
2023/06/02 06:41:06;;;;;;;6.57;5.07;;;18.70;81.10;;;;;;5130512;27;20955;-75
2023/06/02 06:43:33;;;;;;;10.17;5.67;;;18.80;80.70;;;;;;5136067;27;20512;-75
2023/06/02 06:46:02;;;;;;;10.73;5.93;;;18.90;80.80;;;;;;5136946;27;20445;-74
2023/06/02 06:48:35;;;;;;;9.67;5.30;;;19.00;80.50;;;;;;5138293;27;20451;-75
2023/06/02 06:51:04;;;;;;;8.57;5.20;;;19.10;80.10;;;;;;5138006;27;20856;-75
2023/06/02 06:53:32;;;;;;;6.47;5.43;;;19.20;79.50;;;;;;5134670;27;20925;-74
2023/06/02 06:56:00;;;;;;;8.37;5.20;;;19.30;79.00;;;;;;5136812;27;20433;-74
2023/06/02 06:58:27;;;;;;;6.30;5.20;;;19.40;77.50;;;;;;5136514;27;20433;-76
2023/06/02 07:00:54;;;;;;;8.33;4.83;;;19.50;76.50;;;;;;5136535;27;20427;-74
2023/06/02 07:03:28;;;;;;;9.93;5.07;;;19.60;77.10;;;;;;5136172;27;20468;-75
2023/06/02 07:05:55;;;;;;;7.97;5.40;;;19.70;76.40;;;;;;5134996;27;20489;-76
2023/06/02 07:08:25;;;;;;;8.90;5.00;;;19.80;75.30;;;;;;5133802;27;20994;-75
2023/06/02 07:10:53;;;;;;;6.60;5.10;;;19.90;75.70;;;;;;5134541;27;20442;-75
2023/06/02 07:13:20;;;;;;;10.10;5.60;;;20.00;74.10;;;;;;5134072;27;20497;-75
2023/06/02 07:15:48;;;;;;;10.20;5.40;;;20.20;74.40;;;;;;5135118;27;20490;-75
2023/06/02 07:18:15;;;;;;;7.20;5.70;;;20.30;72.80;;;;;;5134802;27;20524;-74
2023/06/02 07:20:43;;;;;;;7.83;5.30;;;20.40;72.80;;;;;;5134586;27;20447;-75
2023/06/02 07:23:10;;;;;;;7.37;5.03;;;20.50;73.20;;;;;;5134407;27;20492;-75
2023/06/02 07:25:37;;;;;;;6.00;4.90;;;20.60;72.70;;;;;;5136891;27;20625;-75
2023/06/02 07:28:09;;;;;;;10.57;5.27;;;20.80;72.60;;;;;;5135943;27;20981;-75
2023/06/02 07:30:36;;;;;;;7.73;5.50;;;20.90;73.00;;;;;;5135465;27;20964;-75
2023/06/02 07:33:07;;;;;;;10.07;5.10;;;21.10;71.90;;;;;;5136397;27;20465;-75
2023/06/02 07:35:37;;;;;;;7.90;5.03;;;21.20;71.60;;;;;;5137926;27;20433;-75
2023/06/02 07:38:07;;;;;;;9.27;6.60;;;21.40;70.90;;;;;;5137574;27;20495;-75
2023/06/02 07:40:37;;;;;;;7.40;4.40;;;21.50;70.90;;;;;;5137316;27;20492;-74
2023/06/02 07:43:04;;;;;;;6.53;4.83;;;21.70;70.30;;;;;;5136331;27;20464;-75
2023/06/02 07:45:37;;;;;;;8.73;4.70;;;21.80;68.10;;;;;;5136800;27;20479;-75
2023/06/02 07:48:04;;;;;;;11.00;5.30;;;21.90;68.10;;;;;;5136571;27;20493;-75
2023/06/02 07:50:31;;;;;;;9.33;4.60;;;22.10;66.90;;;;;;5136536;27;20937;-74
2023/06/02 07:52:58;;;;;;;6.60;5.33;;;22.20;66.30;;;;;;5136319;27;20435;-75
2023/06/02 07:55:30;;;;;;;6.60;5.70;;;22.30;64.50;;;;;;5136649;27;20518;-75
2023/06/02 07:57:57;;;;;;;6.97;4.50;;;22.40;64.30;;;;;;5136870;27;20433;-75
2023/06/02 08:00:27;;;;;;;6.93;5.27;;;22.50;64.80;;;;;;5136083;27;20461;-75
2023/06/02 08:02:54;;;;;;;11.80;5.60;;;22.60;63.50;;;;;;5136321;27;20432;-75
2023/06/02 08:05:21;;;;;;;6.40;5.00;;;22.80;64.30;;;;;;5134945;27;20516;-75
2023/06/02 08:07:48;;;;;;;7.23;4.90;;;22.90;63.80;;;;;;5134417;27;20501;-75
2023/06/02 08:10:15;;;;;;;6.03;4.97;;;23.10;64.80;;;;;;5134943;27;20433;-75
2023/06/02 08:12:44;;;;;;;5.43;4.70;;;23.20;63.30;;;;;;5134460;28;20468;-74
2023/06/02 08:15:14;;;;;;;7.80;4.97;;;23.30;62.00;;;;;;5134964;28;20433;-76
2023/06/02 08:17:46;;;;;;;8.87;5.60;;;23.40;62.40;;;;;;5135027;28;20434;-75
2023/06/02 08:20:18;;;;;;;6.87;4.30;;;23.50;63.40;;;;;;5134618;28;20834;-75
2023/06/02 08:22:46;;;;;;;6.03;4.40;;;23.70;62.40;;;;;;5135429;28;20465;-76
2023/06/02 08:25:13;;;;;;;7.63;5.00;;;23.70;61.70;;;;;;5136628;27;20573;-75
2023/06/02 08:27:44;;;;;;;7.13;4.47;;;23.90;60.90;;;;;;5139687;27;20467;-75
2023/06/02 08:30:14;;;;;;;6.20;4.23;;;24.00;59.30;;;;;;5138969;27;20440;-75
2023/06/02 08:32:41;;;;;;;7.27;4.43;;;24.10;59.10;;;;;;5135359;27;20443;-76
2023/06/02 08:35:09;;;;;;;8.57;5.27;;;24.20;59.00;;;;;;5139381;27;20472;-75
2023/06/02 08:37:38;;;;;;;5.40;4.20;;;24.30;58.00;;;;;;5139045;27;20445;-75
2023/06/02 08:40:08;;;;;;;6.80;4.30;;;24.30;56.70;;;;;;5138938;27;20440;-75
2023/06/02 08:42:35;;;;;;;6.07;4.40;;;24.40;56.70;;;;;;5138463;27;20440;-75
2023/06/02 08:45:06;;;;;;;5.70;4.07;;;24.60;56.80;;;;;;5138788;27;20545;-75
2023/06/02 08:47:35;;;;;;;5.60;4.20;;;24.70;54.90;;;;;;5139330;27;20802;-76
2023/06/02 08:50:03;;;;;;;5.93;3.73;;;24.80;55.10;;;;;;5137122;27;20535;-75
2023/06/02 08:52:32;;;;;;;7.23;4.57;;;24.90;54.50;;;;;;5136369;27;20446;-75
2023/06/02 08:54:59;;;;;;;5.43;4.10;;;25.00;53.00;;;;;;5136553;27;20500;-74
2023/06/02 08:57:26;;;;;;;7.03;4.50;;;25.10;52.60;;;;;;5136690;27;20467;-75
2023/06/02 08:59:53;;;;;;;9.77;4.67;;;25.20;52.40;;;;;;5136760;27;20472;-76
2023/06/02 09:02:20;;;;;;;5.87;3.60;;;25.30;48.40;;;;;;5132148;27;20920;-76
2023/06/02 09:04:48;;;;;;;6.40;4.53;;;25.30;49.50;;;;;;5136014;27;20513;-76
2023/06/02 09:07:20;;;;;;;6.30;3.87;;;25.30;49.00;;;;;;5136096;27;20475;-74
2023/06/02 09:09:49;;;;;;;5.50;3.97;;;25.40;49.50;;;;;;5136482;27;20439;-76
2023/06/02 09:12:18;;;;;;;5.50;3.50;;;25.50;49.20;;;;;;5136037;27;20448;-76
2023/06/02 09:14:47;;;;;;;5.47;3.80;;;25.70;50.10;;;;;;5136075;27;20522;-76
2023/06/02 09:17:27;;;;;;;6.10;3.30;;;25.80;48.90;;;;;;5136567;27;20435;-75
2023/06/02 09:19:57;;;;;;;4.90;3.50;;;25.90;48.70;;;;;;5132838;27;20516;-76
2023/06/02 09:22:24;;;;;;;5.33;4.23;;;26.00;47.70;;;;;;5133085;27;20434;-76
2023/06/02 09:24:53;;;;;;;4.87;3.03;;;26.10;47.80;;;;;;5136308;27;20478;-76
2023/06/02 09:27:24;;;;;;;5.73;3.87;;;26.20;47.60;;;;;;5136180;27;20448;-75
2023/06/02 09:29:51;;;;;;;7.23;3.33;;;26.30;46.10;;;;;;5136265;27;20541;-75
2023/06/02 09:32:19;;;;;;;5.23;3.20;;;26.30;44.00;;;;;;5135870;27;20492;-76
2023/06/02 09:34:48;;;;;;;6.33;3.67;;;26.30;44.70;;;;;;5136140;27;20469;-76
2023/06/02 09:37:21;;;;;;;5.13;3.50;;;26.40;45.40;;;;;;5135445;27;20489;-75
2023/06/02 09:39:53;;;;;;;5.40;3.20;;;26.50;45.10;;;;;;5136237;27;20537;-76
2023/06/02 09:42:21;;;;;;;6.97;3.77;;;26.60;43.80;;;;;;5136077;27;20796;-76
2023/06/02 09:45:03;;;;;;;5.43;3.27;;;26.60;45.10;;;;;;5136384;27;21001;-76
2023/06/02 09:47:38;;;;;;;4.87;3.57;;;26.80;45.40;;;;;;5132681;27;20443;-75
2023/06/02 09:50:06;;;;;;;5.63;3.03;;;26.90;41.80;;;;;;5136741;27;20520;-76
2023/06/02 09:52:38;;;;;;;5.23;3.10;;;26.90;43.30;;;;;;5135842;27;20539;-75
2023/06/02 09:55:09;;;;;;;9.47;3.20;;;27.00;42.20;;;;;;5136082;27;20462;-75
2023/06/02 09:57:39;;;;;;;9.43;4.30;;;27.10;42.80;;;;;;5135803;27;20449;-75
2023/06/02 10:00:11;;;;;;;4.50;3.40;;;27.20;43.00;;;;;;5136881;27;20458;-75
2023/06/02 10:02:43;;;;;;;7.33;3.60;;;27.30;43.40;;;;;;5134756;27;20468;-75
2023/06/02 10:05:10;;;;;;;5.90;3.37;;;27.40;43.60;;;;;;5135607;27;20509;-75
2023/06/02 10:07:50;;;;;;;4.50;3.10;;;27.50;41.50;;;;;;5131374;27;20799;-76
2023/06/02 10:10:31;;;;;;;4.43;3.53;;;27.50;42.30;;;;;;5132527;27;20798;-75
2023/06/02 10:13:15;;;;;;;6.97;3.00;;;27.60;43.40;;;;;;5135653;27;20831;-75
2023/06/02 10:16:05;;;;;;;6.13;3.00;;;27.70;40.80;;;;;;5131715;27;20479;-74
2023/06/02 10:18:57;;;;;;;6.73;3.40;;;27.80;39.80;;;;;;5135067;27;20478;-75
2023/06/02 10:21:34;;;;;;;4.33;2.93;;;27.90;39.50;;;;;;5132700;27;20474;-76
2023/06/02 10:24:12;;;;;;;5.53;3.90;;;27.90;40.00;;;;;;5135121;27;20496;-75
2023/06/02 10:26:56;;;;;;;5.67;3.40;;;28.00;39.40;;;;;;5132549;27;20622;-75
2023/06/02 10:29:24;;;;;;;4.40;3.10;;;28.10;38.10;;;;;;5133245;27;20925;-75
2023/06/02 10:31:51;;;;;;;6.43;3.40;;;28.20;40.10;;;;;;5134662;27;20529;-75
2023/06/02 10:34:37;;;;;;;4.30;2.80;;;28.20;39.80;;;;;;5135134;27;20444;-76
2023/06/02 10:37:16;;;;;;;4.60;3.00;;;28.20;39.20;;;;;;5133505;27;20782;-76
2023/06/02 10:39:52;;;;;;;4.70;3.67;;;28.30;38.40;;;;;;5131308;27;20792;-76
2023/06/02 10:42:21;;;;;;;6.40;3.50;;;28.30;37.20;;;;;;5131544;27;20477;-75
2023/06/02 10:44:48;;;;;;;4.13;2.60;;;28.30;37.20;;;;;;5134591;27;21050;-76
2023/06/02 10:47:34;;;;;;;5.87;2.87;;;28.30;37.10;;;;;;5134899;27;20521;-76
2023/06/02 10:50:03;;;;;;;8.77;3.17;;;28.40;38.10;;;;;;5132436;27;20435;-75
2023/06/02 10:52:34;;;;;;;4.87;2.90;;;28.50;38.20;;;;;;5134517;27;20539;-75
2023/06/02 10:55:28;;;;;;;3.43;2.60;;;28.50;36.40;;;;;;5134698;27;20452;-75
2023/06/02 10:57:56;;;;;;;4.23;2.87;;;28.60;35.60;;;;;;5132201;27;20463;-75
2023/06/02 11:00:46;;;;;;;5.73;2.80;;;28.60;35.10;;;;;;5134471;27;20527;-76
2023/06/02 11:03:47;;;;;;;6.83;2.77;;;28.60;36.30;;;;;;5134239;27;20927;-76
2023/06/02 11:06:21;;;;;;;4.27;2.73;;;28.60;35.90;;;;;;5134012;27;20483;-75
2023/06/02 11:08:51;;;;;;;5.00;3.03;;;28.70;33.60;;;;;;5129521;27;20478;-76
2023/06/02 11:11:53;;;;;;;6.43;2.77;;;28.60;33.30;;;;;;5129681;27;20456;-76
2023/06/02 11:14:20;;;;;;;3.80;2.60;;;28.70;33.30;;;;;;5129849;27;20451;-76
2023/06/02 11:17:07;;;;;;;6.30;3.10;;;28.70;33.10;;;;;;5131117;27;20447;-75
2023/06/02 11:19:50;;;;;;;6.93;3.10;;;28.70;33.90;;;;;;5131708;27;20497;-76
2023/06/02 11:22:25;;;;;;;13.90;2.90;;;28.70;32.50;;;;;;5133319;27;20526;-75
2023/06/02 11:24:52;;;;;;;4.67;3.00;;;28.70;33.10;;;;;;5129452;27;21332;-76
2023/06/02 11:27:34;;;;;;;4.83;3.00;;;28.70;33.10;;;;;;5133301;27;20471;-76
2023/06/02 11:30:06;;;;;;;7.87;2.90;;;28.80;33.60;;;;;;5130982;27;20442;-75
2023/06/02 11:32:34;;;;;;;5.53;3.30;;;28.90;33.90;;;;;;5133702;27;20946;-76
2023/06/02 11:35:02;;;;;;;6.30;3.20;;;28.90;32.80;;;;;;5134078;27;20478;-76
2023/06/02 11:37:42;;;;;;;4.30;2.67;;;29.00;32.80;;;;;;5134209;27;20811;-75
2023/06/02 11:40:11;;;;;;;8.87;3.50;;;29.00;32.80;;;;;;5133492;27;20434;-76
2023/06/02 11:42:41;;;;;;;4.30;3.13;;;29.10;31.60;;;;;;5133629;27;20440;-76
2023/06/02 11:45:19;;;;;;;7.60;3.57;;;29.10;32.00;;;;;;5133143;27;20495;-75
2023/06/02 11:47:47;;;;;;;4.73;3.47;;;29.20;32.10;;;;;;5134041;27;20441;-76
2023/06/02 11:50:17;;;;;;;6.90;3.20;;;29.20;32.20;;;;;;5133761;27;20515;-77
2023/06/02 11:52:46;;;;;;;9.67;4.43;;;29.30;31.10;;;;;;5132939;27;20432;-76
2023/06/02 11:55:13;;;;;;;30.40;10.17;;;29.30;31.40;;;;;;5133536;27;20475;-76
2023/06/02 11:57:44;;;;;;;13.73;6.03;;;29.30;32.30;;;;;;5133727;27;20438;-76
2023/06/02 12:00:15;;;;;;;60.63;22.40;;;29.30;32.60;;;;;;5133448;27;20859;-76
2023/06/02 12:02:48;;;;;;;24.03;9.83;;;29.30;32.30;;;;;;5133482;27;20448;-76
2023/06/02 12:05:34;;;;;;;5.33;3.60;;;29.20;32.60;;;;;;5133588;27;20515;-76
2023/06/02 12:08:20;;;;;;;5.10;3.00;;;29.20;32.40;;;;;;5129473;27;20768;-76
2023/06/02 12:10:48;;;;;;;6.53;3.23;;;29.20;33.30;;;;;;5131724;27;20424;-75
2023/06/02 12:13:25;;;;;;;6.00;3.20;;;29.20;33.40;;;;;;5133608;27;20926;-75
2023/06/02 12:15:53;;;;;;;5.73;2.70;;;29.20;32.60;;;;;;5133316;28;20930;-75
2023/06/02 12:18:29;;;;;;;5.13;3.37;;;29.20;30.20;;;;;;5133378;28;20436;-75
2023/06/02 12:20:56;;;;;;;5.70;2.83;;;29.20;31.60;;;;;;5133870;28;20436;-75
2023/06/02 12:23:23;;;;;;;5.80;3.30;;;29.20;32.30;;;;;;5133633;28;20455;-75
2023/06/02 12:25:58;;;;;;;3.93;3.30;;;29.10;32.10;;;;;;5133451;28;20495;-75
2023/06/02 12:28:26;;;;;;;4.53;3.07;;;29.10;32.30;;;;;;5133459;28;20527;-75
2023/06/02 12:30:55;;;;;;;4.30;3.20;;;29.00;32.30;;;;;;5133361;28;20480;-75
2023/06/02 12:33:22;;;;;;;7.67;3.87;;;29.00;32.80;;;;;;5133396;28;20434;-75
2023/06/02 12:35:49;;;;;;;5.43;3.00;;;29.00;33.40;;;;;;5133366;28;20442;-75
2023/06/02 12:38:16;;;;;;;6.17;3.80;;;29.00;33.20;;;;;;5133451;28;20452;-73
2023/06/02 12:40:43;;;;;;;8.73;4.53;;;29.10;33.20;;;;;;5133098;28;20466;-75
2023/06/02 12:43:10;;;;;;;7.97;3.60;;;29.10;33.30;;;;;;5133198;28;20447;-75
2023/06/02 12:45:38;;;;;;;6.60;3.00;;;29.00;33.30;;;;;;5133220;28;20511;-75
2023/06/02 12:48:05;;;;;;;6.30;3.03;;;29.00;32.70;;;;;;5133142;28;20478;-74
2023/06/02 12:50:33;;;;;;;9.50;2.90;;;29.10;32.90;;;;;;5132620;28;20448;-75
2023/06/02 12:52:59;;;;;;;5.23;3.43;;;29.10;31.70;;;;;;5133401;28;20443;-74
2023/06/02 12:55:27;;;;;;;4.33;3.30;;;29.00;33.30;;;;;;5133315;28;20533;-75
2023/06/02 12:57:55;;;;;;;4.40;3.07;;;29.00;32.80;;;;;;5133073;28;20444;-75
2023/06/02 13:00:22;;;;;;;6.60;3.37;;;29.00;32.70;;;;;;5133111;28;20456;-74